Kongen — LCDE — position and weather

sailwx.info

Track history (hours):
 
Tides and Currents Weather Stations Pressure Air Temp Water Temp Dewpoint Dewpoint Depression Visibility Wind Speed Wind Dir Waves Ship Positions

Kongen

Last reported at 2014-Sep-20 19:33 UTC. Time now 2014-Sep-20 20:00 UTC.
Position N 59°55' E 010°44'.

Length 50 m; draft 3.2 m.

Type: Passenger vessel. MMSI: 258509000.

Date/timePositionNaut miles runAvg speedWind from/ knotsBaromVisibWave heightAir tempDewpointWater temp
2014-Sep-20 19:33N 59°55' E 010°44'0 0.0
2014-Sep-20 18:33N 59°55' E 010°44'0 0.0
2014-Sep-20 17:33N 59°55' E 010°44'0 0.0
2014-Sep-20 16:33N 59°55' E 010°44'0 0.0
2014-Sep-20 15:33N 59°55' E 010°44'0 0.0
2014-Sep-20 14:33N 59°55' E 010°44'0 0.0
2014-Sep-20 13:33N 59°55' E 010°44'0 0.0
2014-Sep-20 12:33N 59°55' E 010°44'0 0.0
2014-Sep-20 11:33N 59°55' E 010°44'0 0.0
2014-Sep-20 10:33N 59°55' E 010°44'0 0.0
2014-Sep-20 09:33N 59°55' E 010°44'0 0.0
2014-Sep-20 08:32N 59°55' E 010°44'0 0.0
2014-Sep-20 07:33N 59°55' E 010°44'0 0.0
2014-Sep-20 06:33N 59°55' E 010°44'0 0.0
2014-Sep-20 05:33N 59°55' E 010°44'0 0.0
2014-Sep-20 04:33N 59°55' E 010°44'0 0.0
2014-Sep-20 03:33N 59°55' E 010°44'0 0.0
2014-Sep-20 02:33N 59°55' E 010°44'0 0.0
2014-Sep-20 01:33N 59°55' E 010°44'0 0.0
2014-Sep-20 00:33N 59°55' E 010°44'0 0.0
2014-Sep-19 23:33N 59°55' E 010°44'0 0.0
2014-Sep-19 22:33N 59°55' E 010°44'0 0.0
2014-Sep-19 21:33N 59°55' E 010°44'0 0.0
2014-Sep-19 20:33N 59°55' E 010°44'0 0.0
2014-Sep-19 19:33N 59°55' E 010°44'0 0.0
2014-Sep-19 18:33N 59°55' E 010°44'0 0.0
2014-Sep-19 17:33N 59°55' E 010°44'0 0.0
2014-Sep-19 16:33N 59°55' E 010°44'3 3.2
2014-Sep-19 15:33N 59°52' E 010°39'1 0.7
2014-Sep-19 14:29N 59°53' E 010°40'0 0.4
2014-Sep-19 13:32N 59°53' E 010°40'3 2.2
2014-Sep-19 12:15N 59°55' E 010°44'0 0.0
2014-Sep-19 11:30N 59°55' E 010°44'0 0.0
2014-Sep-19 10:24N 59°55' E 010°44'0 0.1
2014-Sep-19 09:33N 59°55' E 010°44'0 0.0
2014-Sep-19 08:33N 59°55' E 010°44'0 0.0
2014-Sep-19 07:33N 59°55' E 010°44'1 1.0
2014-Sep-19 06:33N 59°54' E 010°42'0 0.1
2014-Sep-19 05:33N 59°54' E 010°42'1 1.1
2014-Sep-19 04:33N 59°55' E 010°44'0 0.0
2014-Sep-19 03:11N 59°55' E 010°44'0 0.0
2014-Sep-19 02:29N 59°55' E 010°44'0 0.0
2014-Sep-19 01:29N 59°55' E 010°44'0 0.0
2014-Sep-19 00:32N 59°55' E 010°44'0 0.0
2014-Sep-18 23:32N 59°55' E 010°44'0 0.0
2014-Sep-18 22:32N 59°55' E 010°44'0 0.0
2014-Sep-18 21:20N 59°55' E 010°44'0 0.0
2014-Sep-18 20:32N 59°55' E 010°44'0 0.0
2014-Sep-18 19:32N 59°55' E 010°44'0 0.0
2014-Sep-18 18:32N 59°55' E 010°44'0 0.0
2014-Sep-18 17:27N 59°55' E 010°44'0 0.0
2014-Sep-18 16:33N 59°55' E 010°44'0 0.0
2014-Sep-18 15:33N 59°55' E 010°44'0 0.1
2014-Sep-18 14:33N 59°55' E 010°44'0 0.1
2014-Sep-18 13:33N 59°55' E 010°44'0 0.0
2014-Sep-18 12:33N 59°55' E 010°44'0 0.0
2014-Sep-18 11:33N 59°55' E 010°44'0 0.0
2014-Sep-18 10:33N 59°55' E 010°44'0 0.0
2014-Sep-18 09:04N 59°55' E 010°44'0 0.0
2014-Sep-18 08:27N 59°55' E 010°44'1 0.8
2014-Sep-18 07:34N 59°54' E 010°42'1 0.7
2014-Sep-18 06:32N 59°55' E 010°44'0 0.1
2014-Sep-18 05:34N 59°55' E 010°44'0 0.0
2014-Sep-18 04:34N 59°55' E 010°44'3 0.2
2014-Sep-17 15:31N 59°53' E 010°40'1 0.5
2014-Sep-17 14:28N 59°53' E 010°40'0 0.4
2014-Sep-17 13:30N 59°53' E 010°40'3 2.6
2014-Sep-17 12:28N 59°55' E 010°44'0 0.0
2014-Sep-17 11:28N 59°55' E 010°44'0 0.0
2014-Sep-17 10:31N 59°55' E 010°44'0 0.0
2014-Sep-17 09:33N 59°55' E 010°44'0 0.0
2014-Sep-17 08:33N 59°55' E 010°44'0 0.0
2014-Sep-17 07:33N 59°55' E 010°44'1 1.2
2014-Sep-17 06:33N 59°54' E 010°42'0 0.1
2014-Sep-17 05:33N 59°54' E 010°42'1 1.2
2014-Sep-17 04:31N 59°55' E 010°44'0 0.0
2014-Sep-17 03:34N 59°55' E 010°44'0 0.0
2014-Sep-17 02:34N 59°55' E 010°44'0 0.0
2014-Sep-17 01:33N 59°55' E 010°44'0 0.0
2014-Sep-17 00:33N 59°55' E 010°44'0 0.0
2014-Sep-16 23:34N 59°55' E 010°44'0 0.0
2014-Sep-16 22:24N 59°55' E 010°44'0 0.0
2014-Sep-16 21:24N 59°55' E 010°44'0 0.0
2014-Sep-16 20:27N 59°55' E 010°44'0 0.0
2014-Sep-16 19:27N 59°55' E 010°44'0 0.0
2014-Sep-16 18:30N 59°55' E 010°44'0 0.0
2014-Sep-16 17:30N 59°55' E 010°44'0 0.0
2014-Sep-16 16:33N 59°55' E 010°44'0 0.0
2014-Sep-16 15:32N 59°55' E 010°44'0 0.0
2014-Sep-16 14:34N 59°55' E 010°44'0 0.0
2014-Sep-16 13:33N 59°55' E 010°44'0 0.0
2014-Sep-16 12:33N 59°55' E 010°44'0 0.0
2014-Sep-16 11:28N 59°55' E 010°44'0 0.1
2014-Sep-16 10:34N 59°55' E 010°44'1 0.6
2014-Sep-16 09:34N 59°54' E 010°43'0 0.0
2014-Sep-16 08:33N 59°54' E 010°43'1 0.6
2014-Sep-16 07:33N 59°55' E 010°44'0 0.1
2014-Sep-16 06:33N 59°55' E 010°44'0 0.0
2014-Sep-16 05:33N 59°55' E 010°44'2 0.1
2014-Sep-15 09:09N 59°53' E 010°41'2 1.1
2014-Sep-15 07:32N 59°55' E 010°44'0 0.0
2014-Sep-15 04:18N 59°55' E 010°44'0 0.0
2014-Sep-15 03:30N 59°55' E 010°44'0 0.0
2014-Sep-15 02:33N 59°55' E 010°44'0 0.0
2014-Sep-15 01:33N 59°55' E 010°44'0 0.0
2014-Sep-15 00:24N 59°55' E 010°44'0 0.0
2014-Sep-14 23:33N 59°55' E 010°44'0 0.0
2014-Sep-14 22:21N 59°55' E 010°44'0 0.0
2014-Sep-14 21:27N 59°55' E 010°44'0 0.0
2014-Sep-14 20:12N 59°55' E 010°44'0 0.0
2014-Sep-14 19:15N 59°55' E 010°44'0 0.0
2014-Sep-14 18:15N 59°55' E 010°44'0 0.0
2014-Sep-14 16:30N 59°55' E 010°44'0 0.0
2014-Sep-14 15:33N 59°55' E 010°44'0 0.0
2014-Sep-14 14:18N 59°55' E 010°44'0 0.0
2014-Sep-14 13:33N 59°55' E 010°44'0 0.1
2014-Sep-14 12:33N 59°55' E 010°44'0 0.1
2014-Sep-14 11:32N 59°55' E 010°44'0 0.1
2014-Sep-14 10:33N 59°55' E 010°44'0 0.0
2014-Sep-14 09:33N 59°55' E 010°44'0 0.1
2014-Sep-14 08:33N 59°55' E 010°44'0 0.0
2014-Sep-14 07:33N 59°55' E 010°44'0 0.1
2014-Sep-14 06:32N 59°55' E 010°44'0 0.1
2014-Sep-14 05:33N 59°55' E 010°44'0 0.0
2014-Sep-14 04:33N 59°55' E 010°44'0 0.0
2014-Sep-14 03:16N 59°55' E 010°44'0 0.0
2014-Sep-14 02:22N 59°55' E 010°44'0 0.0
2014-Sep-14 01:22N 59°55' E 010°44'0 0.0
2014-Sep-13 21:22N 59°55' E 010°44'0 0.0
2014-Sep-13 20:28N 59°55' E 010°44'0 0.0
2014-Sep-13 18:28N 59°55' E 010°44'0 0.0
2014-Sep-13 17:28N 59°55' E 010°44'0 0.0
2014-Sep-13 16:16N 59°55' E 010°44'0 0.0
2014-Sep-13 15:31N 59°55' E 010°44'0 0.0
2014-Sep-13 14:33N 59°55' E 010°44'0 0.0
2014-Sep-13 13:33N 59°55' E 010°44'0 0.0
2014-Sep-13 12:33N 59°55' E 010°44'0 0.1
2014-Sep-13 11:33N 59°55' E 010°44'0 0.0
2014-Sep-13 10:33N 59°55' E 010°44'0 0.0
2014-Sep-13 09:33N 59°55' E 010°44'0 0.1
2014-Sep-13 08:33N 59°54' E 010°44'0 0.0
2014-Sep-13 07:33N 59°55' E 010°44'0 0.0
2014-Sep-13 06:33N 59°55' E 010°44'0 0.0
2014-Sep-13 05:32N 59°55' E 010°44'0 0.0
2014-Sep-13 04:33N 59°55' E 010°44'0 0.0
2014-Sep-13 03:31N 59°55' E 010°44'0 0.0
2014-Sep-13 02:31N 59°55' E 010°44'0 0.0
2014-Sep-13 01:22N 59°55' E 010°44'0 0.0
2014-Sep-13 00:31N 59°55' E 010°44'0 0.0
2014-Sep-12 23:22N 59°55' E 010°44'0 0.0
2014-Sep-12 22:25N 59°55' E 010°44'0 0.0
2014-Sep-12 21:25N 59°55' E 010°44'0 0.0
2014-Sep-12 20:07N 59°55' E 010°44'0 0.0
2014-Sep-12 19:28N 59°55' E 010°44'0 0.0
2014-Sep-12 18:28N 59°55' E 010°44'0 0.0
2014-Sep-12 17:23N 59°55' E 010°44'0 0.0
2014-Sep-12 16:33N 59°55' E 010°44'0 0.0
2014-Sep-12 15:33N 59°55' E 010°44'0 0.0
2014-Sep-12 14:33N 59°55' E 010°44'0 0.0
2014-Sep-12 13:33N 59°55' E 010°44'0 0.1
2014-Sep-12 12:33N 59°55' E 010°44'0 0.0
2014-Sep-12 11:33N 59°55' E 010°44'0 0.0
2014-Sep-12 10:33N 59°55' E 010°44'0 0.0
2014-Sep-12 08:25N 59°55' E 010°44'0 0.0
2014-Sep-12 07:25N 59°55' E 010°44'0 0.0
2014-Sep-12 06:33N 59°55' E 010°44'0 0.1
2014-Sep-12 05:28N 59°55' E 010°44'0 0.1
2014-Sep-12 04:33N 59°55' E 010°44'3 0.2
2014-Sep-11 15:32N 59°53' E 010°40'1 0.5
2014-Sep-11 14:28N 59°53' E 010°40'0 0.5
2014-Sep-11 13:31N 59°53' E 010°40'3 2.8
2014-Sep-11 12:30N 59°55' E 010°44'0 0.0
2014-Sep-11 11:30N 59°55' E 010°44'0 0.0
2014-Sep-11 10:24N 59°55' E 010°44'0 0.1
2014-Sep-11 09:33N 59°54' E 010°44'0 0.1
2014-Sep-11 08:33N 59°55' E 010°44'0 0.1
2014-Sep-11 07:33N 59°55' E 010°44'1 1.1
2014-Sep-11 06:33N 59°54' E 010°42'0 0.1
2014-Sep-11 05:33N 59°54' E 010°42'1 1.1
2014-Sep-11 04:26N 59°55' E 010°44'0 0.0
2014-Sep-11 03:29N 59°55' E 010°44'0 0.0
2014-Sep-11 02:32N 59°55' E 010°44'0 0.0
2014-Sep-11 01:32N 59°55' E 010°44'0 0.0
2014-Sep-11 00:17N 59°55' E 010°44'0 0.0
2014-Sep-10 23:32N 59°55' E 010°44'0 0.0
2014-Sep-10 22:32N 59°55' E 010°44'0 0.0
2014-Sep-10 21:20N 59°55' E 010°44'0 0.0
2014-Sep-10 20:20N 59°55' E 010°44'  
Track history (hours):
 
Tides and Currents Weather Stations Pressure Air Temp Water Temp Dewpoint Dewpoint Depression Visibility Wind Speed Wind Dir Waves Ship Positions

Kongen

Last reported at 2014-Sep-20 19:33 UTC. Time now 2014-Sep-20 20:00 UTC.
Position N 59°55' E 010°44'.

Length 50 m; draft 3.2 m.

Type: Passenger vessel. MMSI: 258509000.

Date/timePositionNaut miles runAvg speedWind from/ knotsBaromVisibWave heightAir tempDewpointWater temp
2014-Sep-20 19:33N 59°55' E 010°44'0 0.0
2014-Sep-20 18:33N 59°55' E 010°44'0 0.0
2014-Sep-20 17:33N 59°55' E 010°44'0 0.0
2014-Sep-20 16:33N 59°55' E 010°44'0 0.0
2014-Sep-20 15:33N 59°55' E 010°44'0 0.0
2014-Sep-20 14:33N 59°55' E 010°44'0 0.0
2014-Sep-20 13:33N 59°55' E 010°44'0 0.0
2014-Sep-20 12:33N 59°55' E 010°44'0 0.0
2014-Sep-20 11:33N 59°55' E 010°44'0 0.0
2014-Sep-20 10:33N 59°55' E 010°44'0 0.0
2014-Sep-20 09:33N 59°55' E 010°44'0 0.0
2014-Sep-20 08:32N 59°55' E 010°44'0 0.0
2014-Sep-20 07:33N 59°55' E 010°44'0 0.0
2014-Sep-20 06:33N 59°55' E 010°44'0 0.0
2014-Sep-20 05:33N 59°55' E 010°44'0 0.0
2014-Sep-20 04:33N 59°55' E 010°44'0 0.0
2014-Sep-20 03:33N 59°55' E 010°44'0 0.0
2014-Sep-20 02:33N 59°55' E 010°44'0 0.0
2014-Sep-20 01:33N 59°55' E 010°44'0 0.0
2014-Sep-20 00:33N 59°55' E 010°44'0 0.0
2014-Sep-19 23:33N 59°55' E 010°44'0 0.0
2014-Sep-19 22:33N 59°55' E 010°44'0 0.0
2014-Sep-19 21:33N 59°55' E 010°44'0 0.0
2014-Sep-19 20:33N 59°55' E 010°44'0 0.0
2014-Sep-19 19:33N 59°55' E 010°44'0 0.0
2014-Sep-19 18:33N 59°55' E 010°44'0 0.0
2014-Sep-19 17:33N 59°55' E 010°44'0 0.0
2014-Sep-19 16:33N 59°55' E 010°44'3 3.2
2014-Sep-19 15:33N 59°52' E 010°39'1 0.7
2014-Sep-19 14:29N 59°53' E 010°40'0 0.4
2014-Sep-19 13:32N 59°53' E 010°40'3 2.2
2014-Sep-19 12:15N 59°55' E 010°44'0 0.0
2014-Sep-19 11:30N 59°55' E 010°44'0 0.0
2014-Sep-19 10:24N 59°55' E 010°44'0 0.1
2014-Sep-19 09:33N 59°55' E 010°44'0 0.0
2014-Sep-19 08:33N 59°55' E 010°44'0 0.0
2014-Sep-19 07:33N 59°55' E 010°44'1 1.0
2014-Sep-19 06:33N 59°54' E 010°42'0 0.1
2014-Sep-19 05:33N 59°54' E 010°42'1 1.1
2014-Sep-19 04:33N 59°55' E 010°44'0 0.0
2014-Sep-19 03:11N 59°55' E 010°44'0 0.0
2014-Sep-19 02:29N 59°55' E 010°44'0 0.0
2014-Sep-19 01:29N 59°55' E 010°44'0 0.0
2014-Sep-19 00:32N 59°55' E 010°44'0 0.0
2014-Sep-18 23:32N 59°55' E 010°44'0 0.0
2014-Sep-18 22:32N 59°55' E 010°44'0 0.0
2014-Sep-18 21:20N 59°55' E 010°44'0 0.0
2014-Sep-18 20:32N 59°55' E 010°44'0 0.0
2014-Sep-18 19:32N 59°55' E 010°44'0 0.0
2014-Sep-18 18:32N 59°55' E 010°44'0 0.0
2014-Sep-18 17:27N 59°55' E 010°44'0 0.0
2014-Sep-18 16:33N 59°55' E 010°44'0 0.0
2014-Sep-18 15:33N 59°55' E 010°44'0 0.1
2014-Sep-18 14:33N 59°55' E 010°44'0 0.1
2014-Sep-18 13:33N 59°55' E 010°44'0 0.0
2014-Sep-18 12:33N 59°55' E 010°44'0 0.0
2014-Sep-18 11:33N 59°55' E 010°44'0 0.0
2014-Sep-18 10:33N 59°55' E 010°44'0 0.0
2014-Sep-18 09:04N 59°55' E 010°44'0 0.0
2014-Sep-18 08:27N 59°55' E 010°44'1 0.8
2014-Sep-18 07:34N 59°54' E 010°42'1 0.7
2014-Sep-18 06:32N 59°55' E 010°44'0 0.1
2014-Sep-18 05:34N 59°55' E 010°44'0 0.0
2014-Sep-18 04:34N 59°55' E 010°44'3 0.2
2014-Sep-17 15:31N 59°53' E 010°40'1 0.5
2014-Sep-17 14:28N 59°53' E 010°40'0 0.4
2014-Sep-17 13:30N 59°53' E 010°40'3 2.6
2014-Sep-17 12:28N 59°55' E 010°44'0 0.0
2014-Sep-17 11:28N 59°55' E 010°44'0 0.0
2014-Sep-17 10:31N 59°55' E 010°44'0 0.0
2014-Sep-17 09:33N 59°55' E 010°44'0 0.0
2014-Sep-17 08:33N 59°55' E 010°44'0 0.0
2014-Sep-17 07:33N 59°55' E 010°44'1 1.2
2014-Sep-17 06:33N 59°54' E 010°42'0 0.1
2014-Sep-17 05:33N 59°54' E 010°42'1 1.2
2014-Sep-17 04:31N 59°55' E 010°44'0 0.0
2014-Sep-17 03:34N 59°55' E 010°44'0 0.0
2014-Sep-17 02:34N 59°55' E 010°44'0 0.0
2014-Sep-17 01:33N 59°55' E 010°44'0 0.0
2014-Sep-17 00:33N 59°55' E 010°44'0 0.0
2014-Sep-16 23:34N 59°55' E 010°44'0 0.0
2014-Sep-16 22:24N 59°55' E 010°44'0 0.0
2014-Sep-16 21:24N 59°55' E 010°44'0 0.0
2014-Sep-16 20:27N 59°55' E 010°44'0 0.0
2014-Sep-16 19:27N 59°55' E 010°44'0 0.0
2014-Sep-16 18:30N 59°55' E 010°44'0 0.0
2014-Sep-16 17:30N 59°55' E 010°44'0 0.0
2014-Sep-16 16:33N 59°55' E 010°44'0 0.0
2014-Sep-16 15:32N 59°55' E 010°44'0 0.0
2014-Sep-16 14:34N 59°55' E 010°44'0 0.0
2014-Sep-16 13:33N 59°55' E 010°44'0 0.0
2014-Sep-16 12:33N 59°55' E 010°44'0 0.0
2014-Sep-16 11:28N 59°55' E 010°44'0 0.1
2014-Sep-16 10:34N 59°55' E 010°44'1 0.6
2014-Sep-16 09:34N 59°54' E 010°43'0 0.0
2014-Sep-16 08:33N 59°54' E 010°43'1 0.6
2014-Sep-16 07:33N 59°55' E 010°44'0 0.1
2014-Sep-16 06:33N 59°55' E 010°44'0 0.0
2014-Sep-16 05:33N 59°55' E 010°44'2 0.1
2014-Sep-15 09:09N 59°53' E 010°41'2 1.1
2014-Sep-15 07:32N 59°55' E 010°44'0 0.0
2014-Sep-15 04:18N 59°55' E 010°44'0 0.0
2014-Sep-15 03:30N 59°55' E 010°44'0 0.0
2014-Sep-15 02:33N 59°55' E 010°44'0 0.0
2014-Sep-15 01:33N 59°55' E 010°44'0 0.0
2014-Sep-15 00:24N 59°55' E 010°44'0 0.0
2014-Sep-14 23:33N 59°55' E 010°44'0 0.0
2014-Sep-14 22:21N 59°55' E 010°44'0 0.0
2014-Sep-14 21:27N 59°55' E 010°44'0 0.0
2014-Sep-14 20:12N 59°55' E 010°44'0 0.0
2014-Sep-14 19:15N 59°55' E 010°44'0 0.0
2014-Sep-14 18:15N 59°55' E 010°44'0 0.0
2014-Sep-14 16:30N 59°55' E 010°44'0 0.0
2014-Sep-14 15:33N 59°55' E 010°44'0 0.0
2014-Sep-14 14:18N 59°55' E 010°44'0 0.0
2014-Sep-14 13:33N 59°55' E 010°44'0 0.1
2014-Sep-14 12:33N 59°55' E 010°44'0 0.1
2014-Sep-14 11:32N 59°55' E 010°44'0 0.1
2014-Sep-14 10:33N 59°55' E 010°44'0 0.0
2014-Sep-14 09:33N 59°55' E 010°44'0 0.1
2014-Sep-14 08:33N 59°55' E 010°44'0 0.0
2014-Sep-14 07:33N 59°55' E 010°44'0 0.1
2014-Sep-14 06:32N 59°55' E 010°44'0 0.1
2014-Sep-14 05:33N 59°55' E 010°44'0 0.0
2014-Sep-14 04:33N 59°55' E 010°44'0 0.0
2014-Sep-14 03:16N 59°55' E 010°44'0 0.0
2014-Sep-14 02:22N 59°55' E 010°44'0 0.0
2014-Sep-14 01:22N 59°55' E 010°44'0 0.0
2014-Sep-13 21:22N 59°55' E 010°44'0 0.0
2014-Sep-13 20:28N 59°55' E 010°44'0 0.0
2014-Sep-13 18:28N 59°55' E 010°44'0 0.0
2014-Sep-13 17:28N 59°55' E 010°44'0 0.0
2014-Sep-13 16:16N 59°55' E 010°44'0 0.0
2014-Sep-13 15:31N 59°55' E 010°44'0 0.0
2014-Sep-13 14:33N 59°55' E 010°44'0 0.0
2014-Sep-13 13:33N 59°55' E 010°44'0 0.0
2014-Sep-13 12:33N 59°55' E 010°44'0 0.1
2014-Sep-13 11:33N 59°55' E 010°44'0 0.0
2014-Sep-13 10:33N 59°55' E 010°44'0 0.0
2014-Sep-13 09:33N 59°55' E 010°44'0 0.1
2014-Sep-13 08:33N 59°54' E 010°44'0 0.0
2014-Sep-13 07:33N 59°55' E 010°44'0 0.0
2014-Sep-13 06:33N 59°55' E 010°44'0 0.0
2014-Sep-13 05:32N 59°55' E 010°44'0 0.0
2014-Sep-13 04:33N 59°55' E 010°44'0 0.0
2014-Sep-13 03:31N 59°55' E 010°44'0 0.0
2014-Sep-13 02:31N 59°55' E 010°44'0 0.0
2014-Sep-13 01:22N 59°55' E 010°44'0 0.0
2014-Sep-13 00:31N 59°55' E 010°44'0 0.0
2014-Sep-12 23:22N 59°55' E 010°44'0 0.0
2014-Sep-12 22:25N 59°55' E 010°44'0 0.0
2014-Sep-12 21:25N 59°55' E 010°44'0 0.0
2014-Sep-12 20:07N 59°55' E 010°44'0 0.0
2014-Sep-12 19:28N 59°55' E 010°44'0 0.0
2014-Sep-12 18:28N 59°55' E 010°44'0 0.0
2014-Sep-12 17:23N 59°55' E 010°44'0 0.0
2014-Sep-12 16:33N 59°55' E 010°44'0 0.0
2014-Sep-12 15:33N 59°55' E 010°44'0 0.0
2014-Sep-12 14:33N 59°55' E 010°44'0 0.0
2014-Sep-12 13:33N 59°55' E 010°44'0 0.1
2014-Sep-12 12:33N 59°55' E 010°44'0 0.0
2014-Sep-12 11:33N 59°55' E 010°44'0 0.0
2014-Sep-12 10:33N 59°55' E 010°44'0 0.0
2014-Sep-12 08:25N 59°55' E 010°44'0 0.0
2014-Sep-12 07:25N 59°55' E 010°44'0 0.0
2014-Sep-12 06:33N 59°55' E 010°44'0 0.1
2014-Sep-12 05:28N 59°55' E 010°44'0 0.1
2014-Sep-12 04:33N 59°55' E 010°44'3 0.2
2014-Sep-11 15:32N 59°53' E 010°40'1 0.5
2014-Sep-11 14:28N 59°53' E 010°40'0 0.5
2014-Sep-11 13:31N 59°53' E 010°40'3 2.8
2014-Sep-11 12:30N 59°55' E 010°44'0 0.0
2014-Sep-11 11:30N 59°55' E 010°44'0 0.0
2014-Sep-11 10:24N 59°55' E 010°44'0 0.1
2014-Sep-11 09:33N 59°54' E 010°44'0 0.1
2014-Sep-11 08:33N 59°55' E 010°44'0 0.1
2014-Sep-11 07:33N 59°55' E 010°44'1 1.1
2014-Sep-11 06:33N 59°54' E 010°42'0 0.1
2014-Sep-11 05:33N 59°54' E 010°42'1 1.1
2014-Sep-11 04:26N 59°55' E 010°44'0 0.0
2014-Sep-11 03:29N 59°55' E 010°44'0 0.0
2014-Sep-11 02:32N 59°55' E 010°44'0 0.0
2014-Sep-11 01:32N 59°55' E 010°44'0 0.0
2014-Sep-11 00:17N 59°55' E 010°44'0 0.0
2014-Sep-10 23:32N 59°55' E 010°44'0 0.0
2014-Sep-10 22:32N 59°55' E 010°44'0 0.0
2014-Sep-10 21:20N 59°55' E 010°44'0 0.0
2014-Sep-10 20:20N 59°55' E 010°44'  

Dump ship's entire track history